createdAt,value
2023-01-27T00:01:22.460Z,0.00
2023-01-27T00:03:52.112Z,0.00
2023-01-27T00:06:22.148Z,0.00
2023-01-27T00:08:50.694Z,-0.10
2023-01-27T00:11:36.520Z,-0.10
2023-01-27T00:14:05.261Z,0.00
2023-01-27T00:16:33.985Z,0.00
2023-01-27T00:19:02.561Z,0.00
2023-01-27T00:22:15.466Z,-0.10
2023-01-27T00:24:44.281Z,-0.10
2023-01-27T00:27:13.409Z,-0.10
2023-01-27T00:29:42.345Z,-0.10
2023-01-27T00:32:29.426Z,-0.10
2023-01-27T00:34:58.077Z,-0.10
2023-01-27T00:37:28.118Z,-0.10
2023-01-27T00:40:13.599Z,-0.10
2023-01-27T00:42:42.291Z,-0.10
2023-01-27T00:45:28.541Z,-0.10
2023-01-27T00:47:57.058Z,0.00
2023-01-27T00:50:25.671Z,0.00
2023-01-27T00:53:02.519Z,0.00
2023-01-27T00:55:31.119Z,0.00
2023-01-27T00:57:59.876Z,0.00
2023-01-27T01:00:28.598Z,0.00
2023-01-27T01:02:57.565Z,0.00
2023-01-27T01:05:26.201Z,0.00
2023-01-27T01:07:54.655Z,0.10
2023-01-27T01:10:24.862Z,0.00
2023-01-27T01:12:53.445Z,0.00
2023-01-27T01:15:22.110Z,0.00
2023-01-27T01:17:51.067Z,0.00
2023-01-27T01:20:19.913Z,0.00
2023-01-27T01:22:48.978Z,0.00
2023-01-27T01:25:43.430Z,0.00
2023-01-27T01:29:02.186Z,0.00
2023-01-27T01:31:31.191Z,0.00
2023-01-27T01:34:00.148Z,0.00
2023-01-27T01:36:28.848Z,0.00
2023-01-27T01:38:58.260Z,0.00
2023-01-27T01:41:28.941Z,0.00
2023-01-27T01:43:57.426Z,0.00
2023-01-27T01:46:26.247Z,0.00
2023-01-27T01:48:57.494Z,0.00
2023-01-27T01:51:32.006Z,0.00
2023-01-27T01:54:04.807Z,0.00
2023-01-27T01:56:40.151Z,0.00
2023-01-27T01:59:12.405Z,0.00
2023-01-27T02:01:41.073Z,0.00
2023-01-27T02:04:13.545Z,0.00
2023-01-27T02:06:47.018Z,0.00
2023-01-27T02:09:16.544Z,0.00
2023-01-27T02:11:47.056Z,0.10
2023-01-27T02:14:17.742Z,0.00
2023-01-27T02:19:55.645Z,0.10
2023-01-27T02:22:36.809Z,0.10
2023-01-27T02:25:12.225Z,0.20
2023-01-27T02:27:42.558Z,0.20
2023-01-27T02:30:12.997Z,0.20
2023-01-27T02:32:41.806Z,0.20
2023-01-27T02:35:13.442Z,0.30
2023-01-27T02:37:43.072Z,0.30
2023-01-27T02:40:14.281Z,0.30
2023-01-27T02:42:46.109Z,0.30
2023-01-27T02:45:39.951Z,0.30
2023-01-27T02:48:09.148Z,0.40
2023-01-27T02:50:37.715Z,0.40
2023-01-27T02:53:07.643Z,0.40
2023-01-27T02:55:36.733Z,0.40
2023-01-27T02:58:07.174Z,0.40
2023-01-27T03:01:00.989Z,0.30
2023-01-27T03:03:29.825Z,0.30
2023-01-27T03:05:58.534Z,0.30
2023-01-27T03:08:27.326Z,0.20
2023-01-27T03:10:57.120Z,0.20
2023-01-27T03:13:30.686Z,0.20
2023-01-27T03:16:17.865Z,0.20
2023-01-27T03:18:49.876Z,0.20
2023-01-27T03:21:20.277Z,0.20
2023-01-27T03:23:49.611Z,0.20
2023-01-27T03:26:18.482Z,0.20
2023-01-27T03:29:08.841Z,0.20
2023-01-27T03:31:37.711Z,0.30
2023-01-27T03:34:06.495Z,0.30
2023-01-27T03:36:52.597Z,0.20
2023-01-27T03:39:38.527Z,0.30
2023-01-27T03:42:24.438Z,0.30
2023-01-27T03:45:11.910Z,0.40
2023-01-27T03:47:41.055Z,0.30
2023-01-27T03:50:19.583Z,0.30
2023-01-27T03:53:03.588Z,0.40
2023-01-27T03:55:32.876Z,0.40
2023-01-27T03:58:18.507Z,0.40
2023-01-27T04:00:51.352Z,0.30
2023-01-27T04:06:43.086Z,0.40
2023-01-27T04:09:13.219Z,0.40
2023-01-27T04:11:55.720Z,0.40
2023-01-27T04:14:26.810Z,0.30
2023-01-27T04:16:58.945Z,0.40
2023-01-27T04:19:27.694Z,0.40
2023-01-27T04:21:57.247Z,0.40
2023-01-27T04:24:26.600Z,0.40
2023-01-27T04:26:57.941Z,0.30
2023-01-27T04:29:28.350Z,0.30
2023-01-27T04:32:23.613Z,0.30
2023-01-27T04:34:52.749Z,0.20
2023-01-27T04:37:21.436Z,0.30
2023-01-27T04:39:50.323Z,0.30
2023-01-27T04:42:43.847Z,0.30
2023-01-27T04:45:12.927Z,0.30
2023-01-27T04:47:43.179Z,0.30
2023-01-27T04:50:16.350Z,0.30
2023-01-27T04:52:45.763Z,0.40
2023-01-27T04:55:14.713Z,0.40
2023-01-27T04:57:45.821Z,0.40
2023-01-27T05:00:16.671Z,0.50
2023-01-27T05:02:48.035Z,0.50
2023-01-27T05:05:16.868Z,0.50
2023-01-27T05:07:45.609Z,0.50
2023-01-27T05:10:14.371Z,0.50
2023-01-27T05:13:07.985Z,0.50
2023-01-27T05:15:36.618Z,0.50
2023-01-27T05:18:07.136Z,0.50
2023-01-27T05:20:35.855Z,0.50
2023-01-27T05:23:21.602Z,0.50
2023-01-27T05:25:50.625Z,0.50
2023-01-27T05:28:19.034Z,0.50
2023-01-27T05:30:47.719Z,0.40
2023-01-27T05:33:18.001Z,0.50
2023-01-27T05:36:13.252Z,0.50
2023-01-27T05:38:41.992Z,0.50
2023-01-27T05:41:12.248Z,0.50
2023-01-27T05:43:42.847Z,0.50
2023-01-27T05:46:13.474Z,0.50
2023-01-27T05:48:45.834Z,0.50
2023-01-27T05:51:15.723Z,0.50
2023-01-27T05:53:45.358Z,0.50
2023-01-27T05:56:15.620Z,0.50
2023-01-27T05:58:45.048Z,0.40
2023-01-27T06:01:16.100Z,0.40
2023-01-27T06:03:47.465Z,0.40
2023-01-27T06:06:17.834Z,0.50
2023-01-27T06:08:47.320Z,0.40
2023-01-27T06:11:16.636Z,0.50
2023-01-27T06:13:45.600Z,0.40
2023-01-27T06:16:18.204Z,0.40
2023-01-27T06:18:49.589Z,0.30
2023-01-27T06:21:18.748Z,0.40
2023-01-27T06:23:47.311Z,0.40
2023-01-27T06:26:17.889Z,0.40
2023-01-27T06:28:47.099Z,0.40
2023-01-27T06:31:18.269Z,0.50
2023-01-27T06:33:48.678Z,0.50
2023-01-27T06:36:19.300Z,0.50
2023-01-27T06:38:48.567Z,0.50
2023-01-27T06:41:17.061Z,0.60
2023-01-27T06:43:45.959Z,0.60
2023-01-27T06:46:15.209Z,0.60
2023-01-27T06:48:44.349Z,0.70
2023-01-27T06:51:15.272Z,0.70
2023-01-27T06:53:44.215Z,0.80
2023-01-27T06:56:13.083Z,0.90
2023-01-27T06:58:42.950Z,0.90
2023-01-27T07:01:12.123Z,1.00
2023-01-27T07:03:42.424Z,1.00
2023-01-27T07:06:12.826Z,1.00
2023-01-27T07:08:42.950Z,1.00
2023-01-27T07:11:11.691Z,1.00
2023-01-27T07:13:40.642Z,1.10
2023-01-27T07:16:09.691Z,1.10
2023-01-27T07:18:38.420Z,1.10
2023-01-27T07:21:07.640Z,1.20
2023-01-27T07:23:36.346Z,1.20
2023-01-27T07:26:19.312Z,1.20
2023-01-27T07:28:52.427Z,1.30
2023-01-27T07:31:21.068Z,1.30
2023-01-27T07:33:49.847Z,1.40
2023-01-27T07:36:18.716Z,1.40
2023-01-27T07:38:50.243Z,1.50
2023-01-27T07:41:20.572Z,1.50
2023-01-27T07:43:51.517Z,1.50
2023-01-27T07:46:21.031Z,1.60
2023-01-27T07:48:49.905Z,1.60
2023-01-27T07:51:18.605Z,1.60
2023-01-27T07:53:47.048Z,1.60
2023-01-27T07:56:15.926Z,1.60
2023-01-27T07:58:46.204Z,1.60
2023-01-27T08:01:15.211Z,1.60
2023-01-27T08:03:44.224Z,1.60
2023-01-27T08:06:14.709Z,1.70
2023-01-27T08:08:55.716Z,1.60
2023-01-27T08:11:51.478Z,1.70
2023-01-27T08:14:22.057Z,1.60
2023-01-27T08:16:50.585Z,1.60
2023-01-27T08:19:19.912Z,1.60
2023-01-27T08:21:48.822Z,1.50
2023-01-27T08:24:17.461Z,1.50
2023-01-27T08:26:46.235Z,1.50
2023-01-27T08:29:42.473Z,1.50
2023-01-27T08:32:14.175Z,1.50
2023-01-27T08:34:43.861Z,1.50
2023-01-27T08:37:13.119Z,1.60
2023-01-27T08:39:41.898Z,1.60
2023-01-27T08:42:10.994Z,1.50
2023-01-27T08:44:39.625Z,1.50
2023-01-27T08:47:09.837Z,1.40
2023-01-27T08:49:38.294Z,1.40
2023-01-27T08:52:07.166Z,1.40
2023-01-27T08:54:35.804Z,1.30
2023-01-27T08:57:04.568Z,1.20
2023-01-27T08:59:33.177Z,1.30
2023-01-27T09:02:01.823Z,1.30
2023-01-27T09:04:32.066Z,1.30
2023-01-27T09:07:00.564Z,1.30
2023-01-27T09:09:29.290Z,1.30
2023-01-27T09:11:58.182Z,1.30
2023-01-27T09:14:26.907Z,1.30
2023-01-27T09:17:17.409Z,1.40
2023-01-27T09:20:13.949Z,1.50
2023-01-27T09:23:07.725Z,1.60
2023-01-27T09:25:36.560Z,1.80
2023-01-27T09:28:05.258Z,1.90
2023-01-27T09:30:33.928Z,1.90
2023-01-27T09:33:02.700Z,1.90
2023-01-27T09:35:39.376Z,1.80
2023-01-27T09:38:16.041Z,1.70
2023-01-27T09:41:17.355Z,1.70
2023-01-27T09:44:15.209Z,1.70
2023-01-27T09:47:13.457Z,1.80
2023-01-27T09:50:01.101Z,1.80
2023-01-27T09:52:49.175Z,1.90
2023-01-27T09:55:26.024Z,1.90
2023-01-27T09:58:01.616Z,2.00
2023-01-27T10:00:42.525Z,2.00
2023-01-27T10:03:47.518Z,1.90
2023-01-27T10:06:45.801Z,1.90
2023-01-27T10:09:35.893Z,1.80
2023-01-27T10:12:16.631Z,1.80
2023-01-27T10:14:56.833Z,1.80
2023-01-27T10:17:39.671Z,1.80
2023-01-27T10:20:23.246Z,1.70
2023-01-27T10:23:03.187Z,1.70
2023-01-27T10:26:00.404Z,1.70
2023-01-27T10:28:33.275Z,1.70
2023-01-27T10:31:03.699Z,1.70
2023-01-27T10:34:07.804Z,1.70
2023-01-27T10:36:47.658Z,1.60
2023-01-27T10:39:24.541Z,1.60
2023-01-27T10:42:01.739Z,1.60
2023-01-27T10:44:44.596Z,1.70
2023-01-27T10:47:26.596Z,1.70
2023-01-27T10:49:59.862Z,1.70
2023-01-27T10:52:34.967Z,1.70
2023-01-27T10:55:09.471Z,1.70
2023-01-27T10:57:43.392Z,1.70
2023-01-27T11:00:51.346Z,1.70
2023-01-27T11:03:13.216Z,1.80
2023-01-27T11:05:45.475Z,1.80
2023-01-27T11:08:17.884Z,1.70
2023-01-27T11:11:07.801Z,1.70
2023-01-27T11:13:39.242Z,1.70
2023-01-27T11:16:15.013Z,1.70
2023-01-27T11:18:46.398Z,1.60
2023-01-27T11:21:21.146Z,1.70
2023-01-27T11:23:54.168Z,1.60
2023-01-27T11:26:31.805Z,1.50
2023-01-27T11:29:21.382Z,1.50
2023-01-27T11:31:55.948Z,1.60
2023-01-27T11:34:53.976Z,1.60
2023-01-27T11:37:26.236Z,1.60
2023-01-27T11:39:56.222Z,1.60
2023-01-27T11:42:29.116Z,1.60
2023-01-27T11:45:00.783Z,1.60
2023-01-27T11:47:32.085Z,1.70
2023-01-27T11:50:04.705Z,1.60
2023-01-27T11:52:34.108Z,1.60
2023-01-27T11:55:12.989Z,1.60
2023-01-27T11:57:44.463Z,1.60
2023-01-27T12:00:24.192Z,1.60
2023-01-27T12:03:01.147Z,1.50
2023-01-27T12:05:35.254Z,1.50
2023-01-27T12:08:05.661Z,1.50
2023-01-27T12:10:36.052Z,1.50
2023-01-27T12:13:10.823Z,1.60
2023-01-27T12:15:53.119Z,1.50
2023-01-27T12:18:23.759Z,1.40
2023-01-27T12:21:01.553Z,1.50
2023-01-27T12:23:55.827Z,1.40
2023-01-27T12:26:38.269Z,1.40
2023-01-27T12:29:09.019Z,1.50
2023-01-27T12:31:48.743Z,1.60
2023-01-27T12:34:27.839Z,1.60
2023-01-27T12:36:57.763Z,1.60
2023-01-27T12:39:33.647Z,1.70
2023-01-27T12:42:02.497Z,1.70
2023-01-27T12:44:43.161Z,1.80
2023-01-27T12:47:26.452Z,1.80
2023-01-27T12:50:21.744Z,1.90
2023-01-27T12:53:06.512Z,2.00
2023-01-27T12:55:36.853Z,2.00
2023-01-27T12:58:05.600Z,1.90
2023-01-27T13:00:36.241Z,1.80
2023-01-27T13:03:12.369Z,1.80
2023-01-27T13:06:07.456Z,1.80
2023-01-27T13:08:40.786Z,1.70
2023-01-27T13:11:09.648Z,1.60
2023-01-27T13:13:38.341Z,1.60
2023-01-27T13:16:16.212Z,1.60
2023-01-27T13:18:55.853Z,1.60
2023-01-27T13:21:27.793Z,1.50
2023-01-27T13:23:57.319Z,1.50
2023-01-27T13:26:30.133Z,1.50
2023-01-27T13:29:02.878Z,1.50
2023-01-27T13:31:43.895Z,1.50
2023-01-27T13:34:24.166Z,1.50
2023-01-27T13:36:58.442Z,1.50
2023-01-27T13:39:40.393Z,1.50
2023-01-27T13:42:37.221Z,1.50
2023-01-27T13:45:12.325Z,1.50
2023-01-27T13:47:49.509Z,1.50
2023-01-27T13:50:29.572Z,1.50
2023-01-27T13:53:16.123Z,1.50
2023-01-27T13:56:23.985Z,1.50
2023-01-27T13:59:02.016Z,1.50
2023-01-27T14:01:44.772Z,1.50
2023-01-27T14:04:30.363Z,1.50
2023-01-27T14:07:14.821Z,1.40
2023-01-27T14:10:02.588Z,1.40
2023-01-27T14:12:42.060Z,1.40
2023-01-27T14:15:24.778Z,1.40
2023-01-27T14:18:16.054Z,1.30
2023-01-27T14:21:14.567Z,1.30
2023-01-27T14:24:20.853Z,1.20
2023-01-27T14:26:55.424Z,1.20
2023-01-27T14:29:34.988Z,1.20
2023-01-27T14:32:15.345Z,1.20
2023-01-27T14:35:10.043Z,1.10
2023-01-27T14:38:10.406Z,1.10
2023-01-27T14:40:49.743Z,1.10
2023-01-27T14:43:27.330Z,1.10
2023-01-27T14:46:02.091Z,1.10
2023-01-27T14:48:42.139Z,1.10
2023-01-27T14:51:19.082Z,1.20
2023-01-27T14:54:03.803Z,1.10
2023-01-27T14:56:46.604Z,1.10
2023-01-27T14:59:31.275Z,1.00
2023-01-27T15:02:06.384Z,1.00
2023-01-27T15:05:04.347Z,0.90
2023-01-27T15:07:42.753Z,0.90
2023-01-27T15:10:24.200Z,0.90
2023-01-27T15:13:28.680Z,0.90
2023-01-27T15:16:35.564Z,0.90
2023-01-27T15:19:31.413Z,0.90
2023-01-27T15:22:34.543Z,0.90
2023-01-27T15:25:20.678Z,0.90
2023-01-27T15:27:53.575Z,0.80
2023-01-27T15:30:27.464Z,0.80
2023-01-27T15:32:56.640Z,0.80
2023-01-27T15:35:34.940Z,0.80
2023-01-27T15:38:22.914Z,0.80
2023-01-27T15:41:05.105Z,0.70
2023-01-27T15:43:38.404Z,0.80
2023-01-27T15:46:31.562Z,0.80
2023-01-27T15:49:02.121Z,0.80
2023-01-27T15:51:35.725Z,0.80
2023-01-27T15:54:05.349Z,0.80
2023-01-27T15:57:00.186Z,0.80
2023-01-27T15:59:32.081Z,0.70
2023-01-27T16:02:15.474Z,0.80
2023-01-27T16:04:44.619Z,0.80
2023-01-27T16:07:24.281Z,0.80
2023-01-27T16:09:53.929Z,0.80
2023-01-27T16:12:33.619Z,0.80
2023-01-27T16:15:39.447Z,0.80
2023-01-27T16:18:45.108Z,0.80
2023-01-27T16:21:37.445Z,0.80
2023-01-27T16:24:15.289Z,0.80
2023-01-27T16:27:07.588Z,0.80
2023-01-27T16:29:42.631Z,0.80
2023-01-27T16:32:18.943Z,0.80
2023-01-27T16:34:52.451Z,0.80
2023-01-27T16:37:26.302Z,0.80
2023-01-27T16:40:00.760Z,0.80
2023-01-27T16:42:33.148Z,0.70
2023-01-27T16:45:05.669Z,0.80
2023-01-27T16:48:00.608Z,0.80
2023-01-27T16:50:39.154Z,0.80
2023-01-27T16:53:13.706Z,0.80
2023-01-27T16:55:42.543Z,0.70
2023-01-27T16:58:24.414Z,0.80
2023-01-27T17:00:55.577Z,0.70
2023-01-27T17:03:34.179Z,0.70
2023-01-27T17:06:08.337Z,0.70
2023-01-27T17:08:46.039Z,0.80
2023-01-27T17:11:25.456Z,0.80
2023-01-27T17:13:59.970Z,0.80
2023-01-27T17:16:51.431Z,0.80
2023-01-27T17:22:40.147Z,0.80
2023-01-27T17:25:16.268Z,0.80
2023-01-27T17:27:47.041Z,0.80
2023-01-27T17:30:22.847Z,0.80
2023-01-27T17:32:55.028Z,0.90
2023-01-27T17:35:25.316Z,0.80
2023-01-27T17:38:06.959Z,0.80
2023-01-27T17:40:38.817Z,0.90
2023-01-27T17:43:25.170Z,0.80
2023-01-27T17:46:17.723Z,0.80
2023-01-27T17:48:52.819Z,0.80
2023-01-27T17:51:26.504Z,0.80
2023-01-27T17:53:58.033Z,0.80
2023-01-27T17:56:32.113Z,0.80
2023-01-27T17:59:04.506Z,0.90
2023-01-27T18:01:33.647Z,0.90
2023-01-27T18:04:04.212Z,0.90
2023-01-27T18:06:33.188Z,0.90
2023-01-27T18:09:18.035Z,0.90
2023-01-27T18:11:58.734Z,0.90
2023-01-27T18:14:29.386Z,0.90
2023-01-27T18:17:06.865Z,0.90
2023-01-27T18:19:35.886Z,0.90
2023-01-27T18:22:16.780Z,0.90
2023-01-27T18:24:53.352Z,0.90
2023-01-27T18:27:28.632Z,0.90
2023-01-27T18:30:02.254Z,0.90
2023-01-27T18:32:39.807Z,0.90
2023-01-27T18:35:26.011Z,0.90
2023-01-27T18:37:58.860Z,0.90
2023-01-27T18:40:31.631Z,0.90
2023-01-27T18:43:00.353Z,0.90
2023-01-27T18:45:29.373Z,0.90
2023-01-27T18:47:59.814Z,0.90
2023-01-27T18:50:29.389Z,0.90
2023-01-27T18:52:58.151Z,0.90
2023-01-27T18:55:42.841Z,0.80
2023-01-27T18:58:13.316Z,0.90
2023-01-27T19:00:46.182Z,0.90
2023-01-27T19:03:19.448Z,0.80
2023-01-27T19:05:48.780Z,0.80
2023-01-27T19:08:19.446Z,0.80
2023-01-27T19:10:49.751Z,0.90
2023-01-27T19:13:20.007Z,0.80
2023-01-27T19:15:50.422Z,0.90
2023-01-27T19:18:27.528Z,0.80
2023-01-27T19:21:21.433Z,0.80
2023-01-27T19:24:09.939Z,0.90
2023-01-27T19:26:38.455Z,1.00
2023-01-27T19:29:12.488Z,0.80
2023-01-27T19:31:41.463Z,0.90
2023-01-27T19:34:12.652Z,0.90
2023-01-27T19:36:44.175Z,0.90
2023-01-27T19:39:15.135Z,0.90
2023-01-27T19:41:45.775Z,0.90
2023-01-27T19:44:16.717Z,0.90
2023-01-27T19:46:45.521Z,0.90
2023-01-27T19:49:17.595Z,0.80
2023-01-27T19:51:46.339Z,0.90
2023-01-27T19:54:14.855Z,0.90
2023-01-27T19:56:43.851Z,0.90
2023-01-27T19:59:15.799Z,0.90
2023-01-27T20:01:44.488Z,0.90
2023-01-27T20:04:13.403Z,0.90
2023-01-27T20:06:42.153Z,0.90
2023-01-27T20:09:12.447Z,0.90
2023-01-27T20:11:42.357Z,0.90
2023-01-27T20:14:14.140Z,0.90
2023-01-27T20:16:44.694Z,0.80
2023-01-27T20:19:15.192Z,0.80
2023-01-27T20:21:44.350Z,0.90
2023-01-27T20:24:16.038Z,0.90
2023-01-27T20:26:45.036Z,0.90
2023-01-27T20:29:14.486Z,0.90
2023-01-27T20:31:45.249Z,0.90
2023-01-27T20:34:13.811Z,0.90
2023-01-27T20:36:42.766Z,0.90
2023-01-27T20:39:12.118Z,1.00
2023-01-27T20:41:40.711Z,0.90
2023-01-27T20:44:13.604Z,0.90
2023-01-27T20:46:44.229Z,0.90
2023-01-27T20:49:12.756Z,0.90
2023-01-27T20:51:44.715Z,0.90
2023-01-27T20:54:13.556Z,0.90
2023-01-27T20:56:42.135Z,0.90
2023-01-27T20:59:11.131Z,0.90
2023-01-27T21:01:39.781Z,1.00
2023-01-27T21:04:10.224Z,0.90
2023-01-27T21:06:39.353Z,0.90
2023-01-27T21:09:08.018Z,0.90
2023-01-27T21:11:37.620Z,0.80
2023-01-27T21:14:06.263Z,0.90
2023-01-27T21:16:35.383Z,0.90
2023-01-27T21:19:04.124Z,0.90
2023-01-27T21:21:34.395Z,0.90
2023-01-27T21:24:03.331Z,0.80
2023-01-27T21:26:32.908Z,0.80
2023-01-27T21:29:01.489Z,0.80
2023-01-27T21:31:30.670Z,0.80
2023-01-27T21:34:01.145Z,0.80
2023-01-27T21:36:30.294Z,0.80
2023-01-27T21:39:02.745Z,0.80
2023-01-27T21:41:49.013Z,0.70
2023-01-27T21:44:37.379Z,0.80
2023-01-27T21:47:07.468Z,0.80
2023-01-27T21:49:57.540Z,0.80
2023-01-27T21:52:27.713Z,0.80
2023-01-27T21:54:57.953Z,0.80
2023-01-27T21:57:26.692Z,0.80
2023-01-27T21:59:55.371Z,0.80
2023-01-27T22:02:24.221Z,0.80
2023-01-27T22:04:53.148Z,0.80
2023-01-27T22:07:22.314Z,0.80
2023-01-27T22:09:50.991Z,0.90
2023-01-27T22:12:22.419Z,0.90
2023-01-27T22:14:51.315Z,0.80
2023-01-27T22:17:20.156Z,0.80
2023-01-27T22:19:48.941Z,0.80
2023-01-27T22:22:17.495Z,0.80
2023-01-27T22:24:46.075Z,0.80
2023-01-27T22:27:14.648Z,0.80
2023-01-27T22:29:44.897Z,0.70
2023-01-27T22:32:13.647Z,0.70
2023-01-27T22:34:54.549Z,0.80
2023-01-27T22:37:23.241Z,0.80
2023-01-27T22:39:51.747Z,0.70
2023-01-27T22:42:20.280Z,0.70
2023-01-27T22:44:51.943Z,0.70
2023-01-27T22:47:20.705Z,0.70
2023-01-27T22:49:49.408Z,0.70
2023-01-27T22:52:18.009Z,0.70
2023-01-27T22:54:46.893Z,0.70
2023-01-27T22:57:15.353Z,0.60
2023-01-27T22:59:43.902Z,0.60
2023-01-27T23:02:14.474Z,0.60
2023-01-27T23:04:43.181Z,0.70
2023-01-27T23:07:11.829Z,0.70
2023-01-27T23:09:40.778Z,0.70
2023-01-27T23:12:09.723Z,0.60
2023-01-27T23:14:38.301Z,0.60
2023-01-27T23:17:07.396Z,0.60
2023-01-27T23:19:37.918Z,0.60
2023-01-27T23:22:06.643Z,0.60
2023-01-27T23:24:35.441Z,0.60
2023-01-27T23:27:04.433Z,0.60
2023-01-27T23:29:33.035Z,0.60
2023-01-27T23:32:01.626Z,0.60
2023-01-27T23:34:30.329Z,0.60
2023-01-27T23:37:00.672Z,0.60
2023-01-27T23:39:29.234Z,0.60
2023-01-27T23:41:57.909Z,0.70
2023-01-27T23:44:26.737Z,0.70
2023-01-27T23:46:56.095Z,0.60
2023-01-27T23:49:24.762Z,0.60
2023-01-27T23:51:53.502Z,0.60
2023-01-27T23:54:23.850Z,0.60
2023-01-27T23:56:52.294Z,0.60
2023-01-27T23:59:20.889Z,0.60
